sensor_id;sensor_type;location;lat;lon;timestamp;pressure;altitude;pressure_sealevel;temperature
45976;BMP280;31696;42.668;23.322;2024-02-15T00:01:58;95061.38;;;5.55
45976;BMP280;31696;42.668;23.322;2024-02-15T00:03:59;95061.38;;;5.55
45976;BMP280;31696;42.668;23.322;2024-02-15T00:05:59;95063.84;;;5.36
45976;BMP280;31696;42.668;23.322;2024-02-15T00:08:00;95065.41;;;5.44
45976;BMP280;31696;42.668;23.322;2024-02-15T00:10:00;95066.50;;;5.60
45976;BMP280;31696;42.668;23.322;2024-02-15T00:12:00;95070.72;;;5.58
45976;BMP280;31696;42.668;23.322;2024-02-15T00:14:01;95062.34;;;5.52
45976;BMP280;31696;42.668;23.322;2024-02-15T00:16:01;95059.50;;;5.55
45976;BMP280;31696;42.668;23.322;2024-02-15T00:18:02;95061.03;;;5.69
45976;BMP280;31696;42.668;23.322;2024-02-15T00:20:03;95069.63;;;5.83
45976;BMP280;31696;42.668;23.322;2024-02-15T00:22:09;95064.25;;;5.45
45976;BMP280;31696;42.668;23.322;2024-02-15T00:24:09;95062.84;;;5.80
45976;BMP280;31696;42.668;23.322;2024-02-15T00:26:10;95073.25;;;5.69
45976;BMP280;31696;42.668;23.322;2024-02-15T00:28:12;95068.63;;;5.56
45976;BMP280;31696;42.668;23.322;2024-02-15T00:30:13;95073.94;;;5.69
45976;BMP280;31696;42.668;23.322;2024-02-15T00:32:13;95081.38;;;5.78
45976;BMP280;31696;42.668;23.322;2024-02-15T00:34:14;95070.44;;;5.67
45976;BMP280;31696;42.668;23.322;2024-02-15T00:36:14;95083.41;;;5.50
45976;BMP280;31696;42.668;23.322;2024-02-15T00:38:14;95083.47;;;5.74
45976;BMP280;31696;42.668;23.322;2024-02-15T00:40:15;95078.88;;;5.67
45976;BMP280;31696;42.668;23.322;2024-02-15T00:42:16;95079.09;;;5.69
45976;BMP280;31696;42.668;23.322;2024-02-15T00:44:16;95071.91;;;5.86
45976;BMP280;31696;42.668;23.322;2024-02-15T00:46:17;95083.69;;;5.47
45976;BMP280;31696;42.668;23.322;2024-02-15T00:48:18;95084.06;;;5.56
45976;BMP280;31696;42.668;23.322;2024-02-15T00:50:18;95082.88;;;5.63
45976;BMP280;31696;42.668;23.322;2024-02-15T00:52:18;95076.31;;;5.67
45976;BMP280;31696;42.668;23.322;2024-02-15T00:54:19;95075.34;;;5.70
45976;BMP280;31696;42.668;23.322;2024-02-15T00:56:19;95079.16;;;5.58
45976;BMP280;31696;42.668;23.322;2024-02-15T00:58:20;95081.00;;;5.63
45976;BMP280;31696;42.668;23.322;2024-02-15T01:00:21;95081.97;;;5.90
45976;BMP280;31696;42.668;23.322;2024-02-15T01:02:22;95077.66;;;5.74
45976;BMP280;31696;42.668;23.322;2024-02-15T01:04:23;95075.59;;;5.67
45976;BMP280;31696;42.668;23.322;2024-02-15T01:06:24;95073.84;;;5.80
45976;BMP280;31696;42.668;23.322;2024-02-15T01:08:24;95070.81;;;5.82
45976;BMP280;31696;42.668;23.322;2024-02-15T01:10:25;95065.25;;;5.37
45976;BMP280;31696;42.668;23.322;2024-02-15T01:12:26;95078.25;;;5.50
45976;BMP280;31696;42.668;23.322;2024-02-15T01:14:27;95076.03;;;5.71
45976;BMP280;31696;42.668;23.322;2024-02-15T01:16:30;95076.41;;;5.51
45976;BMP280;31696;42.668;23.322;2024-02-15T01:18:31;95069.38;;;5.45
45976;BMP280;31696;42.668;23.322;2024-02-15T01:20:31;95069.84;;;5.50
45976;BMP280;31696;42.668;23.322;2024-02-15T01:22:32;95069.84;;;5.44
45976;BMP280;31696;42.668;23.322;2024-02-15T01:24:32;95066.19;;;5.34
45976;BMP280;31696;42.668;23.322;2024-02-15T01:26:33;95056.97;;;5.50
45976;BMP280;31696;42.668;23.322;2024-02-15T01:28:33;95066.00;;;5.67
45976;BMP280;31696;42.668;23.322;2024-02-15T01:30:33;95070.28;;;5.54
45976;BMP280;31696;42.668;23.322;2024-02-15T01:32:34;95067.75;;;5.83
45976;BMP280;31696;42.668;23.322;2024-02-15T01:34:34;95067.56;;;5.40
45976;BMP280;31696;42.668;23.322;2024-02-15T01:36:35;95068.66;;;5.51
45976;BMP280;31696;42.668;23.322;2024-02-15T01:38:35;95062.94;;;5.28
45976;BMP280;31696;42.668;23.322;2024-02-15T01:40:35;95077.81;;;5.46
45976;BMP280;31696;42.668;23.322;2024-02-15T01:42:36;95071.25;;;5.45
45976;BMP280;31696;42.668;23.322;2024-02-15T01:44:36;95077.34;;;5.53
45976;BMP280;31696;42.668;23.322;2024-02-15T01:46:37;95075.28;;;5.40
45976;BMP280;31696;42.668;23.322;2024-02-15T01:48:37;95074.06;;;5.47
45976;BMP280;31696;42.668;23.322;2024-02-15T01:50:39;95070.34;;;5.42
45976;BMP280;31696;42.668;23.322;2024-02-15T01:52:40;95076.31;;;5.67
45976;BMP280;31696;42.668;23.322;2024-02-15T01:54:41;95066.31;;;5.53
45976;BMP280;31696;42.668;23.322;2024-02-15T01:56:41;95064.63;;;5.61
45976;BMP280;31696;42.668;23.322;2024-02-15T01:58:42;95056.28;;;5.43
45976;BMP280;31696;42.668;23.322;2024-02-15T02:00:43;95071.97;;;5.45
45976;BMP280;31696;42.668;23.322;2024-02-15T02:02:44;95077.34;;;5.48
45976;BMP280;31696;42.668;23.322;2024-02-15T02:04:45;95074.31;;;5.43
45976;BMP280;31696;42.668;23.322;2024-02-15T02:06:45;95074.78;;;5.48
45976;BMP280;31696;42.668;23.322;2024-02-15T02:08:45;95075.94;;;5.52
45976;BMP280;31696;42.668;23.322;2024-02-15T02:10:46;95079.22;;;5.47
45976;BMP280;31696;42.668;23.322;2024-02-15T02:12:46;95075.84;;;5.63
45976;BMP280;31696;42.668;23.322;2024-02-15T02:14:47;95076.78;;;5.19
45976;BMP280;31696;42.668;23.322;2024-02-15T02:16:47;95077.16;;;5.40
45976;BMP280;31696;42.668;23.322;2024-02-15T02:18:48;95078.78;;;5.43
45976;BMP280;31696;42.668;23.322;2024-02-15T02:20:48;95081.00;;;5.63
45976;BMP280;31696;42.668;23.322;2024-02-15T02:22:48;95080.84;;;5.50
45976;BMP280;31696;42.668;23.322;2024-02-15T02:27:00;95084.38;;;5.47
45976;BMP280;31696;42.668;23.322;2024-02-15T02:29:01;95082.50;;;5.53
45976;BMP280;31696;42.668;23.322;2024-02-15T02:31:05;95078.81;;;5.37
45976;BMP280;31696;42.668;23.322;2024-02-15T02:33:07;95077.25;;;5.23
45976;BMP280;31696;42.668;23.322;2024-02-15T02:35:10;95084.13;;;5.51
45976;BMP280;31696;42.668;23.322;2024-02-15T02:37:13;95086.13;;;5.69
45976;BMP280;31696;42.668;23.322;2024-02-15T02:39:14;95086.94;;;5.53
45976;BMP280;31696;42.668;23.322;2024-02-15T02:41:14;95090.69;;;5.52
45976;BMP280;31696;42.668;23.322;2024-02-15T02:43:14;95081.16;;;5.35
45976;BMP280;31696;42.668;23.322;2024-02-15T02:45:15;95086.72;;;5.45
45976;BMP280;31696;42.668;23.322;2024-02-15T02:47:15;95086.16;;;5.63
45976;BMP280;31696;42.668;23.322;2024-02-15T02:49:16;95080.94;;;5.33
45976;BMP280;31696;42.668;23.322;2024-02-15T02:51:17;95093.97;;;5.52
45976;BMP280;31696;42.668;23.322;2024-02-15T02:53:18;95093.63;;;5.67
45976;BMP280;31696;42.668;23.322;2024-02-15T02:55:18;95083.97;;;5.37
45976;BMP280;31696;42.668;23.322;2024-02-15T02:57:19;95097.63;;;5.16
45976;BMP280;31696;42.668;23.322;2024-02-15T02:59:19;95088.44;;;5.26
45976;BMP280;31696;42.668;23.322;2024-02-15T03:01:22;95090.59;;;5.22
45976;BMP280;31696;42.668;23.322;2024-02-15T03:03:22;95097.03;;;5.45
45976;BMP280;31696;42.668;23.322;2024-02-15T03:05:23;95090.03;;;5.40
45976;BMP280;31696;42.668;23.322;2024-02-15T03:07:23;95090.56;;;5.33
45976;BMP280;31696;42.668;23.322;2024-02-15T03:09:24;95095.19;;;5.40
45976;BMP280;31696;42.668;23.322;2024-02-15T03:11:26;95095.41;;;5.42
45976;BMP280;31696;42.668;23.322;2024-02-15T03:13:27;95094.91;;;5.43
45976;BMP280;31696;42.668;23.322;2024-02-15T03:15:27;95101.34;;;5.26
45976;BMP280;31696;42.668;23.322;2024-02-15T03:17:28;95105.59;;;5.18
45976;BMP280;31696;42.668;23.322;2024-02-15T03:19:28;95107.72;;;5.08
45976;BMP280;31696;42.668;23.322;2024-02-15T03:21:30;95107.41;;;5.28
45976;BMP280;31696;42.668;23.322;2024-02-15T03:23:31;95104.53;;;5.43
45976;BMP280;31696;42.668;23.322;2024-02-15T03:25:33;95106.88;;;5.41
45976;BMP280;31696;42.668;23.322;2024-02-15T03:27:35;95111.44;;;5.18
45976;BMP280;31696;42.668;23.322;2024-02-15T03:29:37;95113.56;;;5.09
45976;BMP280;31696;42.668;23.322;2024-02-15T03:31:37;95121.72;;;5.18
45976;BMP280;31696;42.668;23.322;2024-02-15T03:33:38;95128.06;;;5.23
45976;BMP280;31696;42.668;23.322;2024-02-15T03:35:39;95121.72;;;5.18
45976;BMP280;31696;42.668;23.322;2024-02-15T03:37:39;95122.91;;;5.23
45976;BMP280;31696;42.668;23.322;2024-02-15T03:39:40;95113.56;;;5.09
45976;BMP280;31696;42.668;23.322;2024-02-15T03:41:40;95109.34;;;5.17
45976;BMP280;31696;42.668;23.322;2024-02-15T03:43:41;95118.28;;;5.05
45976;BMP280;31696;42.668;23.322;2024-02-15T03:45:41;95120.34;;;5.12
45976;BMP280;31696;42.668;23.322;2024-02-15T03:47:42;95113.81;;;5.11
45976;BMP280;31696;42.668;23.322;2024-02-15T03:49:42;95111.44;;;5.13
45976;BMP280;31696;42.668;23.322;2024-02-15T03:51:42;95116.53;;;5.29
45976;BMP280;31696;42.668;23.322;2024-02-15T03:53:45;95125.50;;;5.12
45976;BMP280;31696;42.668;23.322;2024-02-15T03:55:45;95120.81;;;5.16
45976;BMP280;31696;42.668;23.322;2024-02-15T03:57:45;95114.00;;;5.13
45976;BMP280;31696;42.668;23.322;2024-02-15T03:59:46;95120.09;;;5.15
45976;BMP280;31696;42.668;23.322;2024-02-15T04:01:50;95116.88;;;5.04
45976;BMP280;31696;42.668;23.322;2024-02-15T04:03:51;95119.16;;;5.13
45976;BMP280;31696;42.668;23.322;2024-02-15T04:05:52;95111.44;;;5.18
45976;BMP280;31696;42.668;23.322;2024-02-15T04:07:53;95107.69;;;5.14
45976;BMP280;31696;42.668;23.322;2024-02-15T04:09:53;95113.09;;;5.16
45976;BMP280;31696;42.668;23.322;2024-02-15T04:11:54;95117.28;;;5.19
45976;BMP280;31696;42.668;23.322;2024-02-15T04:13:57;95113.59;;;4.97
45976;BMP280;31696;42.668;23.322;2024-02-15T04:15:58;95106.41;;;4.90
45976;BMP280;31696;42.668;23.322;2024-02-15T04:17:58;95117.59;;;4.93
45976;BMP280;31696;42.668;23.322;2024-02-15T04:20:00;95116.38;;;5.11
45976;BMP280;31696;42.668;23.322;2024-02-15T04:22:01;95121.22;;;5.25
45976;BMP280;31696;42.668;23.322;2024-02-15T04:24:04;95117.28;;;5.19
45976;BMP280;31696;42.668;23.322;2024-02-15T04:26:05;95113.25;;;5.29
45976;BMP280;31696;42.668;23.322;2024-02-15T04:28:05;95117.13;;;5.06
45976;BMP280;31696;42.668;23.322;2024-02-15T04:30:06;95124.28;;;5.24
45976;BMP280;31696;42.668;23.322;2024-02-15T04:32:11;95115.53;;;4.80
45976;BMP280;31696;42.668;23.322;2024-02-15T04:34:12;95114.81;;;4.91
45976;BMP280;31696;42.668;23.322;2024-02-15T04:36:12;95111.53;;;4.96
45976;BMP280;31696;42.668;23.322;2024-02-15T04:38:15;95118.09;;;4.80
45976;BMP280;31696;42.668;23.322;2024-02-15T04:40:16;95122.72;;;5.04
45976;BMP280;31696;42.668;23.322;2024-02-15T04:42:18;95120.69;;;4.86
45976;BMP280;31696;42.668;23.322;2024-02-15T04:44:19;95123.47;;;4.82
45976;BMP280;31696;42.668;23.322;2024-02-15T04:46:26;95122.03;;;4.92
45976;BMP280;31696;42.668;23.322;2024-02-15T04:48:27;95129.31;;;4.88
45976;BMP280;31696;42.668;23.322;2024-02-15T04:50:28;95122.34;;;4.72
45976;BMP280;31696;42.668;23.322;2024-02-15T04:52:29;95127.25;;;4.70
45976;BMP280;31696;42.668;23.322;2024-02-15T04:54:29;95133.81;;;4.71
45976;BMP280;31696;42.668;23.322;2024-02-15T04:56:30;95137.03;;;4.83
45976;BMP280;31696;42.668;23.322;2024-02-15T04:58:33;95144.06;;;4.88
45976;BMP280;31696;42.668;23.322;2024-02-15T05:00:36;95144.56;;;4.86
45976;BMP280;31696;42.668;23.322;2024-02-15T05:02:37;95145.19;;;4.98
45976;BMP280;31696;42.668;23.322;2024-02-15T05:04:40;95145.00;;;4.79
45976;BMP280;31696;42.668;23.322;2024-02-15T05:06:42;95150.13;;;5.02
45976;BMP280;31696;42.668;23.322;2024-02-15T05:08:43;95155.31;;;4.90
45976;BMP280;31696;42.668;23.322;2024-02-15T05:10:43;95156.28;;;4.65
45976;BMP280;31696;42.668;23.322;2024-02-15T05:12:46;95161.16;;;4.58
45976;BMP280;31696;42.668;23.322;2024-02-15T05:14:49;95159.53;;;4.60
45976;BMP280;31696;42.668;23.322;2024-02-15T05:16:50;95163.28;;;4.70
45976;BMP280;31696;42.668;23.322;2024-02-15T05:18:51;95171.00;;;4.65
45976;BMP280;31696;42.668;23.322;2024-02-15T05:20:51;95161.34;;;4.98
45976;BMP280;31696;42.668;23.322;2024-02-15T05:22:52;95159.25;;;4.91
45976;BMP280;31696;42.668;23.322;2024-02-15T05:24:53;95164.88;;;4.73
45976;BMP280;31696;42.668;23.322;2024-02-15T05:26:54;95158.31;;;4.94
45976;BMP280;31696;42.668;23.322;2024-02-15T05:28:55;95167.94;;;4.88
45976;BMP280;31696;42.668;23.322;2024-02-15T05:33:11;95173.06;;;4.77
45976;BMP280;31696;42.668;23.322;2024-02-15T05:35:11;95174.03;;;4.85
45976;BMP280;31696;42.668;23.322;2024-02-15T05:37:12;95170.03;;;4.79
45976;BMP280;31696;42.668;23.322;2024-02-15T05:39:12;95181.03;;;4.85
45976;BMP280;31696;42.668;23.322;2024-02-15T05:41:14;95176.13;;;4.87
45976;BMP280;31696;42.668;23.322;2024-02-15T05:43:15;95185.72;;;4.64
45976;BMP280;31696;42.668;23.322;2024-02-15T05:47:23;95183.38;;;4.77
45976;BMP280;31696;42.668;23.322;2024-02-15T05:49:24;95186.16;;;5.02
45976;BMP280;31696;42.668;23.322;2024-02-15T05:51:25;95191.78;;;4.83
45976;BMP280;31696;42.668;23.322;2024-02-15T05:53:25;95184.97;;;5.03
45976;BMP280;31696;42.668;23.322;2024-02-15T05:55:26;95189.00;;;4.87
45976;BMP280;31696;42.668;23.322;2024-02-15T05:57:26;95196.91;;;5.00
45976;BMP280;31696;42.668;23.322;2024-02-15T05:59:26;95195.50;;;4.99
45976;BMP280;31696;42.668;23.322;2024-02-15T06:01:27;95194.09;;;4.92
45976;BMP280;31696;42.668;23.322;2024-02-15T06:03:29;95194.38;;;4.67
45976;BMP280;31696;42.668;23.322;2024-02-15T06:05:29;95189.94;;;4.45
45976;BMP280;31696;42.668;23.322;2024-02-15T06:07:30;95189.25;;;4.56
45976;BMP280;31696;42.668;23.322;2024-02-15T06:09:31;95199.31;;;4.70
45976;BMP280;31696;42.668;23.322;2024-02-15T06:11:33;95202.53;;;4.87
45976;BMP280;31696;42.668;23.322;2024-02-15T06:13:34;95203.94;;;4.83
45976;BMP280;31696;42.668;23.322;2024-02-15T06:15:35;95199.69;;;5.08
45976;BMP280;31696;42.668;23.322;2024-02-15T06:17:37;95203.22;;;5.05
45976;BMP280;31696;42.668;23.322;2024-02-15T06:19:37;95218.00;;;4.87
45976;BMP280;31696;42.668;23.322;2024-02-15T06:21:38;95212.59;;;4.91
45976;BMP280;31696;42.668;23.322;2024-02-15T06:23:38;95221.97;;;4.88
45976;BMP280;31696;42.668;23.322;2024-02-15T06:25:38;95223.38;;;4.84
45976;BMP280;31696;42.668;23.322;2024-02-15T06:27:39;95224.53;;;4.77
45976;BMP280;31696;42.668;23.322;2024-02-15T06:29:42;95228.75;;;4.80
45976;BMP280;31696;42.668;23.322;2024-02-15T06:32:01;95234.56;;;5.09
45976;BMP280;31696;42.668;23.322;2024-02-15T06:34:20;95233.44;;;4.76
45976;BMP280;31696;42.668;23.322;2024-02-15T06:37:00;95232.50;;;4.85
45976;BMP280;31696;42.668;23.322;2024-02-15T06:39:18;95233.88;;;5.03
45976;BMP280;31696;42.668;23.322;2024-02-15T06:41:37;95237.63;;;5.02
45976;BMP280;31696;42.668;23.322;2024-02-15T06:43:37;95231.78;;;4.95
45976;BMP280;31696;42.668;23.322;2024-02-15T06:45:39;95234.84;;;4.88
45976;BMP280;31696;42.668;23.322;2024-02-15T06:47:45;95245.81;;;4.94
45976;BMP280;31696;42.668;23.322;2024-02-15T06:49:45;95248.84;;;5.10
45976;BMP280;31696;42.668;23.322;2024-02-15T06:51:49;95235.03;;;5.13
45976;BMP280;31696;42.668;23.322;2024-02-15T06:53:49;95249.53;;;5.16
45976;BMP280;31696;42.668;23.322;2024-02-15T06:55:50;95253.75;;;5.13
45976;BMP280;31696;42.668;23.322;2024-02-15T06:57:51;95251.41;;;5.26
45976;BMP280;31696;42.668;23.322;2024-02-15T06:59:51;95247.91;;;5.13
45976;BMP280;31696;42.668;23.322;2024-02-15T07:01:52;95245.13;;;5.00
45976;BMP280;31696;42.668;23.322;2024-02-15T07:03:52;95242.25;;;5.36
45976;BMP280;31696;42.668;23.322;2024-02-15T07:05:52;95236.38;;;5.41
45976;BMP280;31696;42.668;23.322;2024-02-15T07:07:53;95237.53;;;5.46
45976;BMP280;31696;42.668;23.322;2024-02-15T07:09:55;95231.56;;;5.79
45976;BMP280;31696;42.668;23.322;2024-02-15T07:11:56;95233.69;;;6.16
45976;BMP280;31696;42.668;23.322;2024-02-15T07:13:56;95229.94;;;6.52
45976;BMP280;31696;42.668;23.322;2024-02-15T07:15:57;95229.16;;;6.57
45976;BMP280;31696;42.668;23.322;2024-02-15T07:17:58;95228.94;;;6.85
45976;BMP280;31696;42.668;23.322;2024-02-15T07:19:58;95225.28;;;6.45
45976;BMP280;31696;42.668;23.322;2024-02-15T07:21:59;95220.47;;;6.90
45976;BMP280;31696;42.668;23.322;2024-02-15T07:23:59;95219.00;;;6.95
45976;BMP280;31696;42.668;23.322;2024-02-15T07:26:00;95222.69;;;6.80
45976;BMP280;31696;42.668;23.322;2024-02-15T07:28:01;95233.97;;;7.26
45976;BMP280;31696;42.668;23.322;2024-02-15T07:30:02;95223.19;;;7.22
45976;BMP280;31696;42.668;23.322;2024-02-15T07:32:04;95227.63;;;7.46
45976;BMP280;31696;42.668;23.322;2024-02-15T07:34:06;95213.13;;;7.61
45976;BMP280;31696;42.668;23.322;2024-02-15T07:36:06;95224.03;;;8.23
45976;BMP280;31696;42.668;23.322;2024-02-15T07:38:06;95228.88;;;8.72
45976;BMP280;31696;42.668;23.322;2024-02-15T07:40:07;95222.00;;;8.48
45976;BMP280;31696;42.668;23.322;2024-02-15T07:42:08;95218.44;;;8.90
45976;BMP280;31696;42.668;23.322;2024-02-15T07:44:09;95208.75;;;9.17
45976;BMP280;31696;42.668;23.322;2024-02-15T07:46:12;95218.41;;;9.97
45976;BMP280;31696;42.668;23.322;2024-02-15T07:48:14;95212.94;;;10.22
45976;BMP280;31696;42.668;23.322;2024-02-15T07:50:18;95215.72;;;10.24
45976;BMP280;31696;42.668;23.322;2024-02-15T07:52:22;95222.22;;;10.66
45976;BMP280;31696;42.668;23.322;2024-02-15T07:54:23;95217.13;;;10.53
45976;BMP280;31696;42.668;23.322;2024-02-15T07:56:23;95218.63;;;11.05
45976;BMP280;31696;42.668;23.322;2024-02-15T07:58:24;95222.00;;;11.28
45976;BMP280;31696;42.668;23.322;2024-02-15T08:00:24;95223.44;;;10.93
45976;BMP280;31696;42.668;23.322;2024-02-15T08:02:27;95223.63;;;10.67
45976;BMP280;31696;42.668;23.322;2024-02-15T08:04:47;95227.66;;;11.12
45976;BMP280;31696;42.668;23.322;2024-02-15T08:06:48;95216.78;;;12.09
45976;BMP280;31696;42.668;23.322;2024-02-15T08:08:48;95213.44;;;11.13
45976;BMP280;31696;42.668;23.322;2024-02-15T08:10:51;95216.00;;;11.41
45976;BMP280;31696;42.668;23.322;2024-02-15T08:12:52;95206.03;;;12.13
45976;BMP280;31696;42.668;23.322;2024-02-15T08:14:53;95205.13;;;12.41
45976;BMP280;31696;42.668;23.322;2024-02-15T08:16:53;95208.94;;;13.42
45976;BMP280;31696;42.668;23.322;2024-02-15T08:18:55;95204.75;;;13.14
45976;BMP280;31696;42.668;23.322;2024-02-15T08:20:56;95212.19;;;12.63
45976;BMP280;31696;42.668;23.322;2024-02-15T08:22:57;95208.06;;;12.60
45976;BMP280;31696;42.668;23.322;2024-02-15T08:24:59;95211.78;;;13.29
45976;BMP280;31696;42.668;23.322;2024-02-15T08:26:59;95202.78;;;13.55
45976;BMP280;31696;42.668;23.322;2024-02-15T08:29:00;95202.50;;;13.43
45976;BMP280;31696;42.668;23.322;2024-02-15T08:31:00;95205.38;;;13.22
45976;BMP280;31696;42.668;23.322;2024-02-15T08:33:01;95211.53;;;13.74
45976;BMP280;31696;42.668;23.322;2024-02-15T08:35:01;95209.50;;;13.90
45976;BMP280;31696;42.668;23.322;2024-02-15T08:37:04;95206.78;;;14.22
45976;BMP280;31696;42.668;23.322;2024-02-15T08:39:05;95206.22;;;13.65
45976;BMP280;31696;42.668;23.322;2024-02-15T08:41:12;95203.41;;;14.12
45976;BMP280;31696;42.668;23.322;2024-02-15T08:43:12;95203.59;;;13.32
45976;BMP280;31696;42.668;23.322;2024-02-15T08:45:13;95200.22;;;13.47
45976;BMP280;31696;42.668;23.322;2024-02-15T08:47:14;95206.47;;;13.52
45976;BMP280;31696;42.668;23.322;2024-02-15T08:49:14;95204.31;;;12.93
45976;BMP280;31696;42.668;23.322;2024-02-15T08:51:14;95209.28;;;13.06
45976;BMP280;31696;42.668;23.322;2024-02-15T08:53:16;95201.06;;;13.17
45976;BMP280;31696;42.668;23.322;2024-02-15T08:55:19;95204.00;;;13.21
45976;BMP280;31696;42.668;23.322;2024-02-15T08:57:24;95198.66;;;13.52
45976;BMP280;31696;42.668;23.322;2024-02-15T08:59:24;95190.00;;;12.62
45976;BMP280;31696;42.668;23.322;2024-02-15T09:01:25;95183.97;;;12.29
45976;BMP280;31696;42.668;23.322;2024-02-15T09:03:25;95188.28;;;11.66
45976;BMP280;31696;42.668;23.322;2024-02-15T09:05:25;95186.25;;;12.02
45976;BMP280;31696;42.668;23.322;2024-02-15T09:07:26;95188.31;;;11.96
45976;BMP280;31696;42.668;23.322;2024-02-15T09:09:26;95185.84;;;12.44
45976;BMP280;31696;42.668;23.322;2024-02-15T09:11:30;95190.56;;;12.07
45976;BMP280;31696;42.668;23.322;2024-02-15T09:13:30;95193.75;;;11.25
45976;BMP280;31696;42.668;23.322;2024-02-15T09:15:32;95186.75;;;11.93
45976;BMP280;31696;42.668;23.322;2024-02-15T09:17:32;95181.69;;;11.65
45976;BMP280;31696;42.668;23.322;2024-02-15T09:19:38;95176.53;;;12.18
45976;BMP280;31696;42.668;23.322;2024-02-15T09:21:39;95179.03;;;12.56
45976;BMP280;31696;42.668;23.322;2024-02-15T09:23:39;95169.50;;;12.51
45976;BMP280;31696;42.668;23.322;2024-02-15T09:25:40;95178.91;;;12.46
45976;BMP280;31696;42.668;23.322;2024-02-15T09:27:43;95175.13;;;12.02
45976;BMP280;31696;42.668;23.322;2024-02-15T09:29:43;95176.19;;;11.91
45976;BMP280;31696;42.668;23.322;2024-02-15T09:31:44;95165.03;;;12.29
45976;BMP280;31696;42.668;23.322;2024-02-15T09:33:44;95176.84;;;12.30
45976;BMP280;31696;42.668;23.322;2024-02-15T09:35:45;95167.28;;;11.64
45976;BMP280;31696;42.668;23.322;2024-02-15T09:37:47;95170.16;;;11.23
45976;BMP280;31696;42.668;23.322;2024-02-15T09:39:50;95163.50;;;11.73
45976;BMP280;31696;42.668;23.322;2024-02-15T09:41:51;95163.16;;;11.61
45976;BMP280;31696;42.668;23.322;2024-02-15T09:43:58;95157.06;;;11.66
45976;BMP280;31696;42.668;23.322;2024-02-15T09:45:58;95161.25;;;11.69
45976;BMP280;31696;42.668;23.322;2024-02-15T09:47:59;95169.22;;;11.86
45976;BMP280;31696;42.668;23.322;2024-02-15T09:50:05;95162.66;;;11.63
45976;BMP280;31696;42.668;23.322;2024-02-15T09:52:06;95164.59;;;11.11
45976;BMP280;31696;42.668;23.322;2024-02-15T09:54:11;95163.66;;;11.59
45976;BMP280;31696;42.668;23.322;2024-02-15T09:56:13;95154.66;;;11.76
45976;BMP280;31696;42.668;23.322;2024-02-15T09:58:15;95155.97;;;10.80
45976;BMP280;31696;42.668;23.322;2024-02-15T10:00:16;95155.38;;;11.02
45976;BMP280;31696;42.668;23.322;2024-02-15T10:02:16;95155.59;;;10.76
45976;BMP280;31696;42.668;23.322;2024-02-15T10:04:18;95159.50;;;10.90
45976;BMP280;31696;42.668;23.322;2024-02-15T10:06:20;95155.22;;;11.00
45976;BMP280;31696;42.668;23.322;2024-02-15T10:08:20;95137.28;;;10.46
45976;BMP280;31696;42.668;23.322;2024-02-15T10:10:22;95140.56;;;10.82
45976;BMP280;31696;42.668;23.322;2024-02-15T10:12:22;95143.91;;;10.90
45976;BMP280;31696;42.668;23.322;2024-02-15T10:14:36;95133.66;;;10.21
45976;BMP280;31696;42.668;23.322;2024-02-15T10:16:38;95140.84;;;10.35
45976;BMP280;31696;42.668;23.322;2024-02-15T10:18:38;95142.25;;;10.72
45976;BMP280;31696;42.668;23.322;2024-02-15T10:20:39;95129.47;;;10.74
45976;BMP280;31696;42.668;23.322;2024-02-15T10:22:41;95131.81;;;11.00
45976;BMP280;31696;42.668;23.322;2024-02-15T10:24:41;95128.13;;;10.88
45976;BMP280;31696;42.668;23.322;2024-02-15T10:26:42;95124.38;;;10.61
45976;BMP280;31696;42.668;23.322;2024-02-15T10:28:42;95114.00;;;10.33
45976;BMP280;31696;42.668;23.322;2024-02-15T10:30:43;95121.66;;;10.74
45976;BMP280;31696;42.668;23.322;2024-02-15T10:32:45;95119.03;;;11.18
45976;BMP280;31696;42.668;23.322;2024-02-15T10:34:46;95130.31;;;11.28
45976;BMP280;31696;42.668;23.322;2024-02-15T10:36:46;95123.50;;;11.02
45976;BMP280;31696;42.668;23.322;2024-02-15T10:38:47;95122.16;;;10.65
45976;BMP280;31696;42.668;23.322;2024-02-15T10:40:47;95112.13;;;10.69
45976;BMP280;31696;42.668;23.322;2024-02-15T10:42:48;95113.91;;;10.46
45976;BMP280;31696;42.668;23.322;2024-02-15T10:44:49;95115.66;;;10.51
45976;BMP280;31696;42.668;23.322;2024-02-15T10:46:51;95111.41;;;10.05
45976;BMP280;31696;42.668;23.322;2024-02-15T10:48:55;95106.72;;;10.31
45976;BMP280;31696;42.668;23.322;2024-02-15T10:50:59;95100.00;;;10.36
45976;BMP280;31696;42.668;23.322;2024-02-15T10:52:59;95110.22;;;10.70
45976;BMP280;31696;42.668;23.322;2024-02-15T10:55:05;95098.00;;;10.49
45976;BMP280;31696;42.668;23.322;2024-02-15T10:57:09;95097.88;;;10.27
45976;BMP280;31696;42.668;23.322;2024-02-15T10:59:16;95092.41;;;10.10
45976;BMP280;31696;42.668;23.322;2024-02-15T11:01:17;95103.72;;;10.55
45976;BMP280;31696;42.668;23.322;2024-02-15T11:03:24;95089.00;;;10.94
45976;BMP280;31696;42.668;23.322;2024-02-15T11:05:26;95095.38;;;10.42
45976;BMP280;31696;42.668;23.322;2024-02-15T11:07:26;95092.56;;;10.68
45976;BMP280;31696;42.668;23.322;2024-02-15T11:09:27;95084.47;;;10.87
45976;BMP280;31696;42.668;23.322;2024-02-15T11:11:29;95091.72;;;10.37
45976;BMP280;31696;42.668;23.322;2024-02-15T11:13:30;95086.69;;;10.39
45976;BMP280;31696;42.668;23.322;2024-02-15T11:15:51;95085.88;;;10.16
45976;BMP280;31696;42.668;23.322;2024-02-15T11:17:53;95084.63;;;10.38
45976;BMP280;31696;42.668;23.322;2024-02-15T11:19:56;95078.44;;;10.56
45976;BMP280;31696;42.668;23.322;2024-02-15T11:21:56;95072.97;;;10.67
45976;BMP280;31696;42.668;23.322;2024-02-15T11:23:57;95075.56;;;10.31
45976;BMP280;31696;42.668;23.322;2024-02-15T11:25:57;95080.56;;;10.22
45976;BMP280;31696;42.668;23.322;2024-02-15T11:30:31;95081.22;;;10.50
45976;BMP280;31696;42.668;23.322;2024-02-15T11:32:44;95079.31;;;10.51
45976;BMP280;31696;42.668;23.322;2024-02-15T11:34:47;95080.03;;;10.59
45976;BMP280;31696;42.668;23.322;2024-02-15T11:36:48;95068.16;;;10.35
45976;BMP280;31696;42.668;23.322;2024-02-15T11:38:48;95062.75;;;10.26
45976;BMP280;31696;42.668;23.322;2024-02-15T11:42:53;95074.16;;;10.23
45976;BMP280;31696;42.668;23.322;2024-02-15T11:45:05;95064.47;;;10.23
45976;BMP280;31696;42.668;23.322;2024-02-15T11:47:06;95072.50;;;10.05
45976;BMP280;31696;42.668;23.322;2024-02-15T11:49:06;95069.66;;;10.23